Time;durP1;ratioP1;P1;durP2;ratioP2;P2;SDS_P1;SDS_P2;PMS_P1;PMS_P2;Temp;Humidity;BMP_temperature;BMP_pressure;BME280_temperature;BME280_humidity;BME280_pressure;Samples;Min_cycle;Max_cycle;Signal;HPM_P1;HPM_P2
2023/04/20 00:02:01;;;;;;;5.40;1.42;;;7.70;80.70;;;;;;5007696;28;20044;-80
2023/04/20 00:04:28;;;;;;;3.03;1.30;;;7.60;80.40;;;;;;5002463;28;20065;-80
2023/04/20 00:06:58;;;;;;;3.42;1.05;;;7.70;81.00;;;;;;5033218;28;20052;-81
2023/04/20 00:09:25;;;;;;;2.03;1.13;;;7.70;80.70;;;;;;4997382;28;20096;-80
2023/04/20 00:11:51;;;;;;;1.77;0.77;;;7.70;81.50;;;;;;5002022;28;20450;-80
2023/04/20 00:14:17;;;;;;;1.85;0.77;;;7.70;81.20;;;;;;5003560;28;20112;-80
2023/04/20 00:16:43;;;;;;;3.95;1.23;;;7.80;81.60;;;;;;5034578;28;20124;-80
2023/04/20 00:19:08;;;;;;;8.80;1.05;;;7.80;81.40;;;;;;5006018;28;20543;-80
2023/04/20 00:21:34;;;;;;;1.23;0.80;;;7.90;81.80;;;;;;5003576;28;20037;-80
2023/04/20 00:24:00;;;;;;;2.58;0.90;;;7.90;81.90;;;;;;5001511;28;20041;-80
2023/04/20 00:26:26;;;;;;;5.68;1.08;;;7.90;81.70;;;;;;5002998;28;20108;-80
2023/04/20 00:28:51;;;;;;;1.92;0.90;;;8.00;81.90;;;;;;5000145;28;20038;-80
2023/04/20 00:31:18;;;;;;;2.08;0.90;;;8.00;82.20;;;;;;4998571;28;20092;-80
2023/04/20 00:33:44;;;;;;;2.45;1.00;;;8.10;82.20;;;;;;5005589;28;20039;-80
2023/04/20 00:36:09;;;;;;;1.88;0.80;;;8.10;82.40;;;;;;5003009;28;20056;-80
2023/04/20 00:38:35;;;;;;;2.05;0.90;;;8.10;83.00;;;;;;5002577;28;20078;-80
2023/04/20 00:41:01;;;;;;;2.88;1.40;;;8.20;83.70;;;;;;4999046;28;20044;-80
2023/04/20 00:43:26;;;;;;;1.48;0.75;;;8.20;83.80;;;;;;5001566;28;20030;-80
2023/04/20 00:45:52;;;;;;;1.85;1.08;;;8.20;84.00;;;;;;4998085;28;20034;-80
2023/04/20 00:48:18;;;;;;;3.08;1.00;;;8.20;84.50;;;;;;5016145;28;20396;-81
2023/04/20 00:50:45;;;;;;;1.88;0.77;;;8.20;84.50;;;;;;5004975;28;20045;-80
2023/04/20 00:53:12;;;;;;;2.33;0.98;;;8.30;85.40;;;;;;5003815;28;20451;-80
2023/04/20 00:55:38;;;;;;;2.42;0.85;;;8.30;85.10;;;;;;5006131;28;20639;-80
2023/04/20 00:58:05;;;;;;;2.15;0.98;;;8.30;85.20;;;;;;5002398;28;20468;-80
2023/04/20 01:00:31;;;;;;;2.75;0.80;;;8.30;85.30;;;;;;4999505;28;20038;-80
2023/04/20 01:02:57;;;;;;;2.97;0.98;;;8.30;85.20;;;;;;5001130;28;20523;-80
2023/04/20 01:05:24;;;;;;;1.67;0.75;;;8.30;85.50;;;;;;5030949;28;20041;-80
2023/04/20 01:07:50;;;;;;;3.53;1.00;;;8.30;85.80;;;;;;5019521;28;20432;-80
2023/04/20 01:10:16;;;;;;;7.53;0.90;;;8.40;86.30;;;;;;5007813;28;20081;-80
2023/04/20 01:12:41;;;;;;;2.78;1.00;;;8.40;86.00;;;;;;5004790;28;20062;-80
2023/04/20 01:15:08;;;;;;;1.45;0.70;;;8.40;85.90;;;;;;5001562;28;20405;-80
2023/04/20 01:17:36;;;;;;;2.50;0.80;;;8.40;86.60;;;;;;5037151;28;20037;-80
2023/04/20 01:20:03;;;;;;;4.30;1.17;;;8.40;87.10;;;;;;5005279;28;20076;-80
2023/04/20 01:22:29;;;;;;;2.15;1.05;;;8.40;86.90;;;;;;4996216;28;20038;-80
2023/04/20 01:24:55;;;;;;;1.90;0.68;;;8.40;86.90;;;;;;5000550;28;20042;-80
2023/04/20 01:27:20;;;;;;;2.42;0.90;;;8.40;87.40;;;;;;5005535;28;20113;-80
2023/04/20 01:29:46;;;;;;;1.48;0.90;;;8.40;87.60;;;;;;4998212;28;20431;-80
2023/04/20 01:32:12;;;;;;;1.98;0.90;;;8.40;88.10;;;;;;4998350;28;20095;-80
2023/04/20 01:34:38;;;;;;;3.20;0.90;;;8.40;88.60;;;;;;5002120;28;20045;-80
2023/04/20 01:37:07;;;;;;;1.58;0.70;;;8.30;88.60;;;;;;5001121;28;20062;-80
2023/04/20 01:39:37;;;;;;;2.30;0.80;;;8.40;88.60;;;;;;5004522;28;20045;-80
2023/04/20 01:42:04;;;;;;;1.60;0.75;;;8.40;88.30;;;;;;5001488;28;20561;-80
2023/04/20 01:44:29;;;;;;;2.22;0.73;;;8.30;87.80;;;;;;4998067;28;20140;-80
2023/04/20 01:46:55;;;;;;;1.45;0.70;;;8.40;88.30;;;;;;5001099;28;20117;-80
2023/04/20 01:49:20;;;;;;;2.92;0.65;;;8.40;88.30;;;;;;5028698;28;20415;-80
2023/04/20 01:51:46;;;;;;;3.38;1.00;;;8.30;88.60;;;;;;5002495;28;20042;-80
2023/04/20 01:54:12;;;;;;;1.35;0.60;;;8.30;88.60;;;;;;4997243;28;20205;-80
2023/04/20 01:56:37;;;;;;;1.35;0.70;;;8.30;88.90;;;;;;5004115;28;20820;-80
2023/04/20 01:59:03;;;;;;;1.85;0.80;;;8.30;89.30;;;;;;5002794;28;20056;-80
2023/04/20 02:01:29;;;;;;;2.63;0.80;;;8.30;89.40;;;;;;5002246;28;20396;-80
2023/04/20 02:03:54;;;;;;;2.33;0.73;;;8.30;90.20;;;;;;4999304;28;20045;-80
2023/04/20 02:06:20;;;;;;;2.65;0.80;;;8.20;90.20;;;;;;5035926;28;20042;-80
2023/04/20 02:08:46;;;;;;;1.00;0.63;;;8.30;90.60;;;;;;5036977;28;20038;-80
2023/04/20 02:11:11;;;;;;;1.90;0.60;;;8.20;90.70;;;;;;5001613;28;20061;-80
2023/04/20 02:13:37;;;;;;;3.05;0.80;;;8.20;91.30;;;;;;4999016;28;20144;-80
2023/04/20 02:16:03;;;;;;;2.00;0.80;;;8.20;91.50;;;;;;5000877;28;20604;-80
2023/04/20 02:18:31;;;;;;;1.63;0.68;;;8.20;91.40;;;;;;5000391;28;20454;-80
2023/04/20 02:20:58;;;;;;;1.88;1.02;;;8.20;91.20;;;;;;4995443;28;20397;-80
2023/04/20 02:23:23;;;;;;;5.63;1.02;;;8.20;91.60;;;;;;4997799;28;20125;-80
2023/04/20 02:25:49;;;;;;;2.53;1.00;;;8.20;91.50;;;;;;5003204;28;20117;-80
2023/04/20 02:28:15;;;;;;;2.95;0.85;;;8.20;91.60;;;;;;5003744;28;20038;-80
2023/04/20 02:30:41;;;;;;;1.75;0.57;;;8.20;91.80;;;;;;4999343;28;20069;-80
2023/04/20 02:33:07;;;;;;;4.05;0.63;;;8.10;91.60;;;;;;5003185;28;20041;-80
2023/04/20 02:35:33;;;;;;;1.92;0.98;;;8.10;91.80;;;;;;5001447;28;20048;-80
2023/04/20 02:37:58;;;;;;;1.25;0.60;;;8.10;92.30;;;;;;5029851;28;20050;-80
2023/04/20 02:40:24;;;;;;;2.92;0.88;;;8.10;92.70;;;;;;5003996;28;20036;-80
2023/04/20 02:42:50;;;;;;;2.60;0.70;;;8.10;92.70;;;;;;5003414;28;20034;-80
2023/04/20 02:45:15;;;;;;;2.13;0.80;;;8.10;92.90;;;;;;5005588;28;20045;-80
2023/04/20 02:47:41;;;;;;;3.00;0.75;;;8.10;93.00;;;;;;5010038;28;20105;-80
2023/04/20 02:50:08;;;;;;;1.23;0.70;;;8.10;92.80;;;;;;5005901;28;20523;-80
2023/04/20 02:52:34;;;;;;;1.80;0.70;;;8.00;92.70;;;;;;5003478;28;20399;-80
2023/04/20 02:54:59;;;;;;;2.92;0.75;;;8.00;92.70;;;;;;5003100;28;20042;-80
2023/04/20 02:57:25;;;;;;;2.20;0.68;;;8.00;92.70;;;;;;5007029;28;20042;-80
2023/04/20 02:59:52;;;;;;;1.25;0.73;;;8.00;92.60;;;;;;5033981;28;20360;-80
2023/04/20 03:02:17;;;;;;;1.73;0.70;;;8.00;92.60;;;;;;5001872;28;20045;-80
2023/04/20 03:04:43;;;;;;;1.95;0.90;;;8.00;92.40;;;;;;5004874;28;20033;-80
2023/04/20 03:07:09;;;;;;;1.52;0.60;;;8.00;92.30;;;;;;5001185;28;20030;-80
2023/04/20 03:09:36;;;;;;;1.38;0.55;;;8.00;92.10;;;;;;5049264;28;20041;-79
2023/04/20 03:12:02;;;;;;;2.28;0.90;;;8.10;91.80;;;;;;5003731;28;20455;-80
2023/04/20 03:14:28;;;;;;;6.05;1.20;;;8.10;91.50;;;;;;5003990;28;20151;-80
2023/04/20 03:16:54;;;;;;;1.33;0.50;;;8.10;91.40;;;;;;5002225;28;20083;-80
2023/04/20 03:19:20;;;;;;;2.30;1.40;;;8.10;91.20;;;;;;5003268;28;20038;-80
2023/04/20 03:21:46;;;;;;;2.75;0.80;;;8.10;90.70;;;;;;4998471;28;20046;-80
2023/04/20 03:24:11;;;;;;;1.30;0.70;;;8.20;90.50;;;;;;5004611;28;20037;-80
2023/04/20 03:26:37;;;;;;;1.33;0.60;;;8.20;90.40;;;;;;5000617;28;20598;-79
2023/04/20 03:29:02;;;;;;;1.13;0.68;;;8.20;90.10;;;;;;5002193;28;20545;-79
2023/04/20 03:31:28;;;;;;;2.63;0.88;;;8.20;89.60;;;;;;5000162;28;20117;-79
2023/04/20 03:33:54;;;;;;;1.70;0.77;;;8.30;89.40;;;;;;4999148;28;20545;-80
2023/04/20 03:36:19;;;;;;;2.90;1.00;;;8.20;89.10;;;;;;5010312;28;20099;-80
2023/04/20 03:38:45;;;;;;;1.45;0.80;;;8.20;88.90;;;;;;5004381;28;20479;-79
2023/04/20 03:41:11;;;;;;;1.67;0.90;;;8.20;88.30;;;;;;5007522;28;20084;-80
2023/04/20 03:43:36;;;;;;;2.35;1.00;;;8.20;87.90;;;;;;5009942;28;20048;-80
2023/04/20 03:46:02;;;;;;;2.88;1.05;;;8.20;87.80;;;;;;5003508;28;20105;-80
2023/04/20 03:48:27;;;;;;;2.13;0.70;;;8.20;88.70;;;;;;4994658;28;20053;-80
2023/04/20 03:50:53;;;;;;;1.27;0.70;;;8.20;88.80;;;;;;5026809;28;20073;-80
2023/04/20 03:53:19;;;;;;;1.58;0.75;;;8.20;89.40;;;;;;5006896;28;20034;-80
2023/04/20 03:55:44;;;;;;;1.83;0.77;;;8.20;89.60;;;;;;5002636;28;20109;-79
2023/04/20 03:58:10;;;;;;;2.30;0.93;;;8.20;89.80;;;;;;5002906;28;20478;-79
2023/04/20 04:00:37;;;;;;;3.20;0.95;;;8.20;90.00;;;;;;5009376;28;20095;-79
2023/04/20 04:03:02;;;;;;;1.75;0.70;;;8.20;90.50;;;;;;5031996;28;20046;-80
2023/04/20 04:05:28;;;;;;;3.95;1.52;;;8.20;90.50;;;;;;5036472;28;20507;-80
2023/04/20 04:07:54;;;;;;;1.80;0.70;;;8.10;90.50;;;;;;5041800;28;20045;-80
2023/04/20 04:10:24;;;;;;;2.38;0.93;;;8.10;91.60;;;;;;5007962;28;20044;-80
2023/04/20 04:12:50;;;;;;;1.02;0.70;;;8.10;92.40;;;;;;4998225;28;20099;-80
2023/04/20 04:15:18;;;;;;;3.03;0.98;;;8.10;93.10;;;;;;5005523;28;20412;-80
2023/04/20 04:17:44;;;;;;;2.03;0.77;;;8.00;93.40;;;;;;5006587;28;20054;-80
2023/04/20 04:20:11;;;;;;;2.10;0.80;;;7.90;93.60;;;;;;5004951;28;20416;-80
2023/04/20 04:22:36;;;;;;;2.45;1.08;;;7.90;93.90;;;;;;5006538;28;20041;-80
2023/04/20 04:25:03;;;;;;;2.45;1.20;;;7.80;94.20;;;;;;4998320;28;20042;-80
2023/04/20 04:27:33;;;;;;;3.88;0.80;;;7.70;94.70;;;;;;5009152;28;20065;-80
2023/04/20 04:29:59;;;;;;;2.13;0.68;;;7.70;95.20;;;;;;5002138;28;20095;-80
2023/04/20 04:32:25;;;;;;;1.77;0.73;;;7.60;96.30;;;;;;5055468;28;20479;-80
2023/04/20 04:34:52;;;;;;;5.63;1.25;;;7.60;97.00;;;;;;5016931;28;20076;-80
2023/04/20 04:37:18;;;;;;;2.08;1.00;;;7.40;97.30;;;;;;5010521;28;20034;-80
2023/04/20 04:39:45;;;;;;;5.07;2.03;;;7.40;97.50;;;;;;5003770;28;20062;-80
2023/04/20 04:42:10;;;;;;;4.35;1.30;;;7.30;98.10;;;;;;5001836;28;20041;-80
2023/04/20 04:44:36;;;;;;;1.90;0.77;;;7.20;98.10;;;;;;4998270;28;20038;-80
2023/04/20 04:47:04;;;;;;;2.33;0.77;;;7.20;98.50;;;;;;5011199;28;20042;-80
2023/04/20 04:49:30;;;;;;;1.55;0.77;;;7.20;98.50;;;;;;5000343;28;20038;-80
2023/04/20 04:51:55;;;;;;;5.22;1.75;;;7.20;98.40;;;;;;5004430;28;20042;-80
2023/04/20 04:54:21;;;;;;;5.40;1.85;;;7.10;98.30;;;;;;5000502;28;20041;-80
2023/04/20 04:56:46;;;;;;;2.17;0.80;;;7.10;98.60;;;;;;5004023;28;20042;-80
2023/04/20 04:59:12;;;;;;;3.00;1.15;;;7.10;99.70;;;;;;5005633;28;20040;-80
2023/04/20 05:01:38;;;;;;;2.72;1.20;;;7.10;99.50;;;;;;5031608;28;20081;-80
2023/04/20 05:04:03;;;;;;;2.33;0.75;;;7.10;99.40;;;;;;5000186;28;20049;-80
2023/04/20 05:06:29;;;;;;;1.52;0.57;;;7.00;99.40;;;;;;5027916;28;20042;-80
2023/04/20 05:08:55;;;;;;;2.10;1.00;;;7.00;99.40;;;;;;5000221;28;20046;-80
2023/04/20 05:11:20;;;;;;;3.17;1.20;;;7.10;99.30;;;;;;5001126;28;20038;-80
2023/04/20 05:13:47;;;;;;;2.33;0.95;;;7.00;98.90;;;;;;5004439;28;20054;-80
2023/04/20 05:16:13;;;;;;;2.40;0.60;;;7.10;99.10;;;;;;5048862;28;20033;-80
2023/04/20 05:18:38;;;;;;;3.22;0.98;;;7.10;98.90;;;;;;5036202;28;20038;-80
2023/04/20 05:21:04;;;;;;;3.08;1.05;;;7.10;99.00;;;;;;5002420;28;20033;-80
2023/04/20 05:23:30;;;;;;;2.78;1.25;;;7.10;99.10;;;;;;5001677;28;20640;-80
2023/04/20 05:25:55;;;;;;;3.53;1.10;;;7.10;98.80;;;;;;4996258;28;20034;-80
2023/04/20 05:28:21;;;;;;;2.50;1.30;;;7.10;99.10;;;;;;5000914;28;20042;-80
2023/04/20 05:30:47;;;;;;;1.23;0.65;;;7.10;99.10;;;;;;5001806;28;20034;-80
2023/04/20 05:33:13;;;;;;;1.90;0.90;;;7.10;98.80;;;;;;5002008;28;20435;-80
2023/04/20 05:35:39;;;;;;;4.00;0.88;;;7.10;98.90;;;;;;4993737;28;20078;-80
2023/04/20 05:38:06;;;;;;;3.17;0.70;;;7.10;98.90;;;;;;5033355;28;20096;-80
2023/04/20 05:40:33;;;;;;;2.13;0.98;;;7.10;99.10;;;;;;5000238;28;20526;-80
2023/04/20 05:42:59;;;;;;;1.10;0.60;;;7.20;99.10;;;;;;4999030;28;20038;-80
2023/04/20 05:45:25;;;;;;;2.15;0.90;;;7.10;99.30;;;;;;5001711;28;20117;-80
2023/04/20 05:47:52;;;;;;;1.35;0.70;;;7.10;99.30;;;;;;4995714;28;20391;-80
2023/04/20 05:50:18;;;;;;;1.65;0.73;;;7.10;99.30;;;;;;5000379;28;20049;-80
2023/04/20 05:52:44;;;;;;;1.17;0.70;;;7.10;99.20;;;;;;5010542;28;20281;-80
2023/04/20 05:55:09;;;;;;;4.78;1.17;;;7.10;99.30;;;;;;5002237;28;20060;-80
2023/04/20 05:57:41;;;;;;;3.28;1.23;;;7.10;99.30;;;;;;5000240;28;20045;-80
2023/04/20 06:00:11;;;;;;;3.90;1.02;;;7.10;99.20;;;;;;5003113;28;20096;-80
2023/04/20 06:02:37;;;;;;;1.60;0.80;;;7.10;99.30;;;;;;5000675;28;20044;-80
2023/04/20 06:05:03;;;;;;;3.58;0.73;;;7.10;99.50;;;;;;4997688;28;20034;-80
2023/04/20 06:07:29;;;;;;;2.75;0.77;;;7.10;99.30;;;;;;5002222;28;20483;-80
2023/04/20 06:09:54;;;;;;;2.08;0.85;;;7.00;99.20;;;;;;5006095;28;20084;-80
2023/04/20 06:12:20;;;;;;;1.23;0.57;;;7.10;99.50;;;;;;5008659;28;20050;-80
2023/04/20 06:14:46;;;;;;;2.33;0.70;;;7.00;99.50;;;;;;5003991;28;20030;-80
2023/04/20 06:17:11;;;;;;;1.67;0.60;;;7.00;99.50;;;;;;5006737;28;20038;-80
2023/04/20 06:19:37;;;;;;;1.17;0.65;;;7.00;99.80;;;;;;5004658;28;20107;-80
2023/04/20 06:22:07;;;;;;;2.30;0.88;;;7.00;99.90;;;;;;4993469;28;20046;-80
2023/04/20 06:24:33;;;;;;;4.55;1.10;;;7.00;99.90;;;;;;5001991;28;20418;-80
2023/04/20 06:27:00;;;;;;;2.85;1.25;;;7.00;99.90;;;;;;5015719;28;20479;-80
2023/04/20 06:29:26;;;;;;;1.55;0.60;;;6.90;99.90;;;;;;5033114;28;20042;-80
2023/04/20 06:31:51;;;;;;;3.63;1.00;;;6.80;99.90;;;;;;4999207;28;20041;-80
2023/04/20 06:34:17;;;;;;;2.35;0.95;;;6.80;99.90;;;;;;4999517;28;20120;-79
2023/04/20 06:36:43;;;;;;;1.92;1.00;;;6.70;99.90;;;;;;4999403;28;20724;-80
2023/04/20 06:39:10;;;;;;;2.75;0.98;;;6.70;99.90;;;;;;5006540;28;20510;-80
2023/04/20 06:41:37;;;;;;;2.53;0.93;;;6.60;99.90;;;;;;5007595;28;20042;-80
2023/04/20 06:44:03;;;;;;;3.05;0.70;;;6.50;99.90;;;;;;5002220;28;20046;-80
2023/04/20 06:46:28;;;;;;;1.48;0.90;;;6.50;99.90;;;;;;5003892;28;20034;-80
2023/04/20 06:48:54;;;;;;;2.45;0.88;;;6.40;99.90;;;;;;4999907;28;20042;-81
2023/04/20 06:51:19;;;;;;;1.65;0.75;;;6.30;99.90;;;;;;5000514;28;20045;-81
2023/04/20 06:53:45;;;;;;;2.85;1.15;;;6.20;99.90;;;;;;5005276;28;20113;-81
2023/04/20 06:56:11;;;;;;;4.47;1.00;;;6.20;99.90;;;;;;4999632;28;20536;-81
2023/04/20 06:58:36;;;;;;;2.63;0.77;;;6.10;99.90;;;;;;5004623;28;20073;-82
2023/04/20 07:01:02;;;;;;;1.92;1.20;;;6.00;99.90;;;;;;5008641;28;20037;-81
2023/04/20 07:03:28;;;;;;;1.98;0.82;;;6.00;99.90;;;;;;5015943;28;20063;-82
2023/04/20 07:05:53;;;;;;;6.75;1.30;;;6.00;99.90;;;;;;5009940;28;20034;-82
2023/04/20 07:08:19;;;;;;;2.42;1.10;;;6.00;99.90;;;;;;5006108;28;20030;-82
2023/04/20 07:10:44;;;;;;;5.60;1.20;;;6.00;99.90;;;;;;5016231;28;20038;-81
2023/04/20 07:13:10;;;;;;;3.50;1.27;;;6.00;99.90;;;;;;5008883;28;20119;-81
2023/04/20 07:15:36;;;;;;;3.15;1.17;;;6.00;99.90;;;;;;5007080;28;20491;-81
2023/04/20 07:18:01;;;;;;;3.67;1.30;;;6.00;99.90;;;;;;5040426;28;20049;-82
2023/04/20 07:20:27;;;;;;;3.72;1.42;;;6.00;99.90;;;;;;5018958;28;20391;-83
2023/04/20 07:22:53;;;;;;;2.83;1.17;;;6.10;99.90;;;;;;5007329;28;20050;-82
2023/04/20 07:25:18;;;;;;;3.03;1.58;;;6.10;99.90;;;;;;5001445;28;20113;-82
2023/04/20 07:27:44;;;;;;;2.63;1.25;;;6.10;99.90;;;;;;5007799;28;20045;-83
2023/04/20 07:30:10;;;;;;;3.90;1.70;;;6.10;99.90;;;;;;5005917;28;20215;-81
2023/04/20 07:32:37;;;;;;;4.60;1.60;;;6.10;99.90;;;;;;5008001;28;20549;-82
2023/04/20 07:35:03;;;;;;;2.95;1.38;;;6.10;99.90;;;;;;5017536;28;20065;-82
2023/04/20 07:37:30;;;;;;;4.15;1.40;;;6.20;99.90;;;;;;5004625;28;20030;-82
2023/04/20 07:39:56;;;;;;;2.47;1.20;;;6.20;99.90;;;;;;5004919;28;20136;-82
2023/04/20 07:42:22;;;;;;;4.20;1.30;;;6.20;99.90;;;;;;4996241;28;20046;-82
2023/04/20 07:44:48;;;;;;;4.28;1.73;;;6.20;99.90;;;;;;4992812;28;20034;-82
2023/04/20 07:47:13;;;;;;;5.88;1.45;;;6.30;99.90;;;;;;4990842;28;20039;-82
2023/04/20 07:49:40;;;;;;;3.17;1.15;;;6.30;99.90;;;;;;4992452;28;20049;-82
2023/04/20 07:52:06;;;;;;;3.10;1.63;;;6.40;99.90;;;;;;5009517;28;20059;-82
2023/04/20 07:54:32;;;;;;;3.83;1.73;;;6.40;99.90;;;;;;5011589;28;20479;-82
2023/04/20 07:57:02;;;;;;;4.97;1.48;;;6.40;99.90;;;;;;5042020;28;20125;-82
2023/04/20 07:59:28;;;;;;;3.42;1.45;;;6.50;99.90;;;;;;5011568;28;20042;-82
2023/04/20 08:02:00;;;;;;;2.72;1.48;;;6.50;99.90;;;;;;5053544;28;20033;-82
2023/04/20 08:04:25;;;;;;;2.38;1.35;;;6.50;99.90;;;;;;5010037;28;20073;-82
2023/04/20 08:06:51;;;;;;;3.97;1.30;;;6.50;99.90;;;;;;4999898;28;20495;-82
2023/04/20 08:09:17;;;;;;;4.28;1.52;;;6.50;99.90;;;;;;5026844;28;20038;-82
2023/04/20 08:11:45;;;;;;;4.05;1.30;;;6.60;99.90;;;;;;5045299;28;20076;-82
2023/04/20 08:14:14;;;;;;;4.47;1.55;;;6.60;99.90;;;;;;5029647;28;20049;-82
2023/04/20 08:16:40;;;;;;;3.90;2.05;;;6.70;99.90;;;;;;5029506;28;20037;-82
2023/04/20 08:19:09;;;;;;;1.95;1.17;;;6.70;99.90;;;;;;5031088;28;20380;-82
2023/04/20 08:21:38;;;;;;;2.53;1.27;;;6.80;99.90;;;;;;4991542;28;20042;-82
2023/04/20 08:24:05;;;;;;;3.35;1.45;;;6.80;99.90;;;;;;5000478;28;20042;-82
2023/04/20 08:26:31;;;;;;;4.30;1.45;;;6.90;99.90;;;;;;5024186;28;20116;-82
2023/04/20 08:28:57;;;;;;;4.38;1.55;;;6.90;99.90;;;;;;5011035;28;20513;-82
2023/04/20 08:31:22;;;;;;;3.53;1.27;;;7.00;99.90;;;;;;5008219;28;20137;-82
2023/04/20 08:33:48;;;;;;;4.25;1.38;;;7.00;99.90;;;;;;5011022;28;20037;-81
2023/04/20 08:36:14;;;;;;;4.95;1.83;;;7.10;99.90;;;;;;5006728;28;20042;-82
2023/04/20 08:38:39;;;;;;;3.58;1.60;;;7.20;99.90;;;;;;5000521;28;20420;-82
2023/04/20 08:41:05;;;;;;;5.07;2.13;;;7.20;99.90;;;;;;5037899;28;20045;-82
2023/04/20 08:43:31;;;;;;;3.03;1.63;;;7.20;99.90;;;;;;5006338;28;20036;-82
2023/04/20 08:45:58;;;;;;;2.92;1.27;;;7.20;99.90;;;;;;5005132;28;21067;-82
2023/04/20 08:48:27;;;;;;;3.58;1.52;;;7.20;99.90;;;;;;4997363;28;20070;-82
2023/04/20 08:50:54;;;;;;;5.38;2.05;;;7.20;99.90;;;;;;4998105;28;20099;-83
2023/04/20 08:53:19;;;;;;;3.75;1.83;;;7.20;99.90;;;;;;4998490;28;20034;-83
2023/04/20 08:55:47;;;;;;;3.65;1.55;;;7.20;99.90;;;;;;5000515;28;20045;-83
2023/04/20 08:58:13;;;;;;;4.43;1.65;;;7.20;99.90;;;;;;5051283;28;20042;-82
2023/04/20 09:00:46;;;;;;;3.45;1.23;;;7.20;99.90;;;;;;5003755;28;20064;-82
2023/04/20 09:03:12;;;;;;;5.40;1.50;;;7.20;99.90;;;;;;5031284;28;20073;-82
2023/04/20 09:05:38;;;;;;;3.45;1.42;;;7.20;99.90;;;;;;5001446;28;20065;-83
2023/04/20 09:08:04;;;;;;;4.22;1.50;;;7.30;99.90;;;;;;5030739;28;20557;-83
2023/04/20 09:10:42;;;;;;;5.60;2.13;;;7.30;99.90;;;;;;5001048;28;20057;-83
2023/04/20 09:13:09;;;;;;;5.20;2.15;;;7.30;99.90;;;;;;5016720;28;20452;-83
2023/04/20 09:15:34;;;;;;;5.70;1.80;;;7.30;99.90;;;;;;4998623;28;20045;-82
2023/04/20 09:18:12;;;;;;;3.60;1.80;;;7.30;99.90;;;;;;5006005;28;20116;-82
2023/04/20 09:20:38;;;;;;;4.20;1.50;;;7.30;99.90;;;;;;5002298;28;20045;-81
2023/04/20 09:23:30;;;;;;;3.58;1.55;;;7.30;99.90;;;;;;5002228;28;20041;-82
2023/04/20 09:25:56;;;;;;;4.15;1.60;;;7.30;99.90;;;;;;5004277;28;20528;-80
2023/04/20 09:28:21;;;;;;;3.80;1.52;;;7.30;99.90;;;;;;5032376;28;20049;-81
2023/04/20 09:30:48;;;;;;;4.82;1.98;;;7.30;99.90;;;;;;5026602;28;20073;-81
2023/04/20 09:33:14;;;;;;;3.83;1.55;;;7.40;99.90;;;;;;5000901;28;20123;-81
2023/04/20 09:35:41;;;;;;;5.10;1.92;;;7.40;99.90;;;;;;5011626;28;20037;-81
2023/04/20 09:38:14;;;;;;;3.60;1.73;;;7.50;99.90;;;;;;4998612;28;20034;-82
2023/04/20 09:40:40;;;;;;;4.30;2.03;;;7.40;99.90;;;;;;4996751;28;20536;-82
2023/04/20 09:43:17;;;;;;;4.75;1.92;;;7.50;99.90;;;;;;4994110;28;20034;-82
2023/04/20 09:45:42;;;;;;;4.05;2.00;;;7.50;99.90;;;;;;4989289;28;20120;-82
2023/04/20 09:48:09;;;;;;;6.60;2.45;;;7.50;99.90;;;;;;5005762;28;20128;-82
2023/04/20 09:50:36;;;;;;;5.07;1.88;;;7.50;99.90;;;;;;4998171;28;20042;-82
2023/04/20 09:53:03;;;;;;;5.28;1.77;;;7.40;99.90;;;;;;5003817;28;20463;-82
2023/04/20 09:55:30;;;;;;;3.97;2.03;;;7.50;99.90;;;;;;5002487;28;20099;-82
2023/04/20 09:57:57;;;;;;;5.05;1.60;;;7.50;99.90;;;;;;5005837;28;20034;-82
2023/04/20 10:00:23;;;;;;;6.35;2.40;;;7.60;99.90;;;;;;5003777;28;20148;-82
2023/04/20 10:02:50;;;;;;;4.55;2.03;;;7.60;99.90;;;;;;5021823;28;20077;-82
2023/04/20 10:05:16;;;;;;;4.20;1.88;;;7.70;99.90;;;;;;4995336;28;20034;-81
2023/04/20 10:07:41;;;;;;;5.80;2.00;;;7.70;99.90;;;;;;5003556;28;20037;-82
2023/04/20 10:10:08;;;;;;;4.95;1.77;;;7.80;99.90;;;;;;4996450;28;20473;-82
2023/04/20 10:12:49;;;;;;;3.70;2.05;;;7.70;99.90;;;;;;4995517;28;20893;-81
2023/04/20 10:15:15;;;;;;;5.80;1.90;;;7.80;99.90;;;;;;5005399;28;20364;-82
2023/04/20 10:17:41;;;;;;;5.05;2.10;;;7.80;99.90;;;;;;5000652;28;20033;-82
2023/04/20 10:20:26;;;;;;;4.97;2.03;;;7.80;99.90;;;;;;5004366;28;20042;-82
2023/04/20 10:22:53;;;;;;;4.10;1.80;;;7.80;99.90;;;;;;5007452;28;20033;-82
2023/04/20 10:25:23;;;;;;;4.63;2.30;;;7.80;99.90;;;;;;5031362;28;20045;-82
2023/04/20 10:27:54;;;;;;;4.57;2.45;;;7.80;99.90;;;;;;5038302;28;20057;-82
2023/04/20 10:30:20;;;;;;;8.02;2.20;;;7.80;99.90;;;;;;5004390;28;20041;-82
2023/04/20 10:32:46;;;;;;;7.30;2.38;;;7.80;99.90;;;;;;5007569;28;20033;-82
2023/04/20 10:35:13;;;;;;;3.53;1.90;;;7.80;99.90;;;;;;5006093;28;20126;-82
2023/04/20 10:37:49;;;;;;;4.85;1.83;;;7.90;99.90;;;;;;5013119;28;20594;-82
2023/04/20 10:40:16;;;;;;;4.45;2.20;;;7.90;99.90;;;;;;5011578;28;20713;-82
2023/04/20 10:42:45;;;;;;;5.10;2.42;;;8.00;99.90;;;;;;5014546;28;20038;-82
2023/04/20 10:45:11;;;;;;;4.45;2.42;;;8.00;99.90;;;;;;5015262;28;20037;-82
2023/04/20 10:47:39;;;;;;;6.88;3.33;;;8.10;99.90;;;;;;5012861;28;20495;-82
2023/04/20 10:50:09;;;;;;;6.35;2.65;;;8.10;99.90;;;;;;5007873;28;20034;-82
2023/04/20 10:52:36;;;;;;;6.55;2.75;;;8.20;99.90;;;;;;5001353;28;20127;-82
2023/04/20 10:55:03;;;;;;;5.90;2.70;;;8.20;99.90;;;;;;5019933;28;20045;-82
2023/04/20 10:57:29;;;;;;;6.05;2.47;;;8.20;99.90;;;;;;5022286;28;20034;-82
2023/04/20 10:59:55;;;;;;;6.70;2.92;;;8.20;99.90;;;;;;5006372;28;20049;-80
2023/04/20 11:02:20;;;;;;;6.63;3.15;;;8.30;99.90;;;;;;5011295;28;20045;-81
2023/04/20 11:04:46;;;;;;;6.25;2.75;;;8.40;99.90;;;;;;5008108;28;20380;-81
2023/04/20 11:07:15;;;;;;;5.03;2.60;;;8.50;99.90;;;;;;5002924;28;20053;-81
2023/04/20 11:09:42;;;;;;;5.68;2.97;;;8.50;99.90;;;;;;5034663;28;20099;-81
2023/04/20 11:12:13;;;;;;;7.60;2.67;;;8.60;99.90;;;;;;5021059;28;20470;-81
2023/04/20 11:14:52;;;;;;;5.35;2.80;;;8.60;99.90;;;;;;5006319;28;20487;-81
2023/04/20 11:17:18;;;;;;;7.68;3.03;;;8.50;99.90;;;;;;5008794;28;20495;-81
2023/04/20 11:19:43;;;;;;;8.18;2.60;;;8.50;99.90;;;;;;5004405;28;20030;-81
2023/04/20 11:22:20;;;;;;;7.03;3.20;;;8.60;99.90;;;;;;5034804;28;20388;-81
2023/04/20 11:24:45;;;;;;;6.32;2.97;;;8.60;99.90;;;;;;5029921;28;20033;-81
2023/04/20 11:27:19;;;;;;;7.70;2.88;;;8.70;99.90;;;;;;5024985;28;20045;-81
2023/04/20 11:29:56;;;;;;;6.68;3.20;;;8.80;99.90;;;;;;5000343;28;20049;-81
2023/04/20 11:32:22;;;;;;;5.65;2.75;;;9.00;99.90;;;;;;5017445;28;20046;-79
2023/04/20 11:35:08;;;;;;;9.23;3.08;;;9.00;99.90;;;;;;5006903;28;20041;-81
2023/04/20 11:37:49;;;;;;;6.75;3.08;;;9.00;99.90;;;;;;5004428;28;20029;-81
2023/04/20 11:40:16;;;;;;;9.05;3.45;;;9.00;99.90;;;;;;5009214;28;20107;-81
2023/04/20 11:42:42;;;;;;;6.25;2.90;;;8.90;99.90;;;;;;5005684;28;20037;-81
2023/04/20 11:45:10;;;;;;;5.43;2.63;;;8.90;99.90;;;;;;5007807;28;20189;-81
2023/04/20 11:47:36;;;;;;;5.45;2.67;;;8.90;99.90;;;;;;4992047;28;20057;-81
2023/04/20 11:50:02;;;;;;;6.35;3.47;;;9.00;99.90;;;;;;5019783;28;20045;-81
2023/04/20 11:52:28;;;;;;;8.10;3.10;;;9.10;99.90;;;;;;5018740;28;20049;-81
2023/04/20 11:54:53;;;;;;;7.25;3.63;;;9.10;99.90;;;;;;5015370;28;20036;-81
2023/04/20 11:57:20;;;;;;;6.78;2.72;;;9.20;99.90;;;;;;5007470;28;20048;-81
2023/04/20 11:59:47;;;;;;;6.70;2.92;;;9.20;99.90;;;;;;5010238;28;20058;-81
2023/04/20 12:02:14;;;;;;;5.50;2.88;;;9.30;99.90;;;;;;5005018;28;20045;-80
2023/04/20 12:04:40;;;;;;;8.63;3.25;;;9.30;99.90;;;;;;5008441;28;20044;-81
2023/04/20 12:07:06;;;;;;;6.70;3.35;;;9.30;99.90;;;;;;5002192;28;20026;-80
2023/04/20 12:09:37;;;;;;;4.43;2.45;;;9.40;99.90;;;;;;5007964;28;20040;-81
2023/04/20 12:12:07;;;;;;;6.35;2.97;;;9.40;99.90;;;;;;5007990;28;20204;-81
2023/04/20 12:14:33;;;;;;;8.70;3.15;;;9.50;99.90;;;;;;5010913;28;20038;-81
2023/04/20 12:17:00;;;;;;;5.82;3.35;;;9.60;99.90;;;;;;5012689;28;20036;-80
2023/04/20 12:19:27;;;;;;;8.48;3.78;;;9.60;99.90;;;;;;5011669;28;20045;-81
2023/04/20 12:21:52;;;;;;;11.77;3.33;;;9.60;99.90;;;;;;5004491;28;20045;-81
2023/04/20 12:24:18;;;;;;;7.57;3.08;;;9.60;99.90;;;;;;5007118;28;20045;-81
2023/04/20 12:26:44;;;;;;;7.57;3.45;;;9.70;99.90;;;;;;5005835;28;20030;-80
2023/04/20 12:29:10;;;;;;;7.22;3.50;;;9.80;99.90;;;;;;5006128;28;20042;-81
2023/04/20 12:31:36;;;;;;;6.32;2.92;;;9.80;99.90;;;;;;5006283;28;20938;-79
2023/04/20 12:34:01;;;;;;;4.97;2.97;;;9.80;99.90;;;;;;5006077;28;20042;-79
2023/04/20 12:36:27;;;;;;;5.22;2.85;;;9.80;99.90;;;;;;5003389;28;20053;-79
2023/04/20 12:38:54;;;;;;;8.20;3.03;;;9.70;99.90;;;;;;5010527;28;20064;-79
2023/04/20 12:41:21;;;;;;;6.40;3.25;;;9.80;99.90;;;;;;5014348;28;20038;-79
2023/04/20 12:43:48;;;;;;;5.60;3.50;;;9.70;99.90;;;;;;5022225;28;20092;-79
2023/04/20 12:46:14;;;;;;;7.75;3.40;;;9.80;99.90;;;;;;5017232;28;20040;-79
2023/04/20 12:48:40;;;;;;;5.43;2.88;;;9.80;99.90;;;;;;5032462;28;20045;-79
2023/04/20 12:51:06;;;;;;;8.95;3.30;;;9.90;99.90;;;;;;5011127;28;20826;-79
2023/04/20 12:53:31;;;;;;;7.75;4.05;;;9.90;99.90;;;;;;5011025;28;20376;-79
2023/04/20 12:55:58;;;;;;;6.15;2.63;;;10.00;99.90;;;;;;5008461;28;20041;-79